Spirit Of New York — WCW9332 — position and weather

sailwx.info

Track history (hours):
 
Tides and Currents Weather Stations Pressure Air Temp Water Temp Dewpoint Dewpoint Depression Visibility Wind Speed Wind Dir Waves Ship Positions

Spirit Of New York

Owner: SPIRIT CRUISES LLC, NEW YORK, NY. More information available from US FCC via Universal Licensing System and Coast Guard Vessel Documentation Center.

Last reported at 2015-May-27 23:34 UTC. Time now 2015-May-27 23:53 UTC.
Position N 40°45' W 074°01'.

Length 62 m.

Type: Passenger vessel. MMSI: 338897000.

Date/timePositionNaut miles runAvg speedWind from/ knotsBaromVisibWave heightAir tempDewpointWater temp
2015-May-27 23:34N 40°45' W 074°01'1 0.5
2015-May-27 22:34N 40°45' W 074°01'0 0.0
2015-May-27 21:33N 40°45' W 074°01'0 0.0
2015-May-27 20:34N 40°45' W 074°01'0 0.0
2015-May-27 19:34N 40°45' W 074°01'0 0.0
2015-May-27 18:33N 40°45' W 074°01'0 0.0
2015-May-27 17:34N 40°45' W 074°01'1 1.0
2015-May-27 16:33N 40°44' W 074°01'3 2.8
2015-May-27 15:33N 40°41' W 074°02'4 3.8
2015-May-27 14:33N 40°45' W 074°01'0 0.0
2015-May-27 01:22N 40°45' W 074°01'3 3.9
2015-May-27 00:33N 40°42' W 074°02'1 0.9
2015-May-26 23:33N 40°43' W 074°01'2 2.2
2015-May-26 22:33N 40°45' W 074°01'1 0.3
2015-May-26 17:33N 40°44' W 074°01'0 0.2
2015-May-26 16:33N 40°44' W 074°01'1 1.1
2015-May-26 15:33N 40°45' W 074°01'0 0.0
2015-May-26 14:33N 40°45' W 074°01'0 0.0
2015-May-26 05:20N 40°45' W 074°01'4 4.5
2015-May-26 04:33N 40°42' W 074°02'4 3.5
2015-May-26 03:33N 40°45' W 074°01'0 0.0
2015-May-26 02:33N 40°45' W 074°01'0 0.0
2015-May-26 01:33N 40°45' W 074°01'4 3.8
2015-May-26 00:33N 40°41' W 074°02'4 4.1
2015-May-25 23:33N 40°45' W 074°01'1 0.0
2015-May-25 02:09N 40°45' W 074°01'0 0.0
2015-May-25 01:33N 40°45' W 074°01'4 4.0
2015-May-25 00:33N 40°41' W 074°03'5 4.6
2015-May-24 23:33N 40°46' W 074°01'1 0.1
2015-May-24 18:33N 40°45' W 074°01'2 1.6
2015-May-24 17:33N 40°43' W 074°01'1 0.7
2015-May-24 16:33N 40°44' W 074°01'1 0.1
2015-May-24 05:33N 40°45' W 074°01'4 4.0
2015-May-24 04:33N 40°41' W 074°02'4 4.0
2015-May-24 03:33N 40°45' W 074°01'0 0.0
2015-May-24 02:33N 40°45' W 074°01'0 0.3
2015-May-24 01:33N 40°45' W 074°01'3 3.4
2015-May-24 00:33N 40°42' W 074°01'4 4.4
2015-May-23 23:33N 40°46' W 074°00'1 1.3
2015-May-23 22:33N 40°45' W 074°01'0 0.0
2015-May-23 21:33N 40°45' W 074°01'0 0.0
2015-May-23 20:33N 40°45' W 074°01'0 0.0
2015-May-23 19:33N 40°45' W 074°01'0 0.0
2015-May-23 18:33N 40°45' W 074°01'1 1.3
2015-May-23 17:33N 40°44' W 074°01'2 2.2
2015-May-23 16:33N 40°46' W 074°01'1 0.1
2015-May-23 02:19N 40°45' W 074°01'2 2.7
2015-May-23 01:33N 40°43' W 074°01'2 1.5
2015-May-23 00:33N 40°42' W 073°59'4 3.9
2015-May-22 23:33N 40°46' W 074°00'1 1.5
2015-May-22 22:33N 40°45' W 074°01'0 0.0
2015-May-22 21:33N 40°45' W 074°01'0 0.0
2015-May-22 20:33N 40°45' W 074°01'0 0.0
2015-May-22 19:33N 40°45' W 074°01'0 0.0
2015-May-22 18:33N 40°45' W 074°01'2 2.2
2015-May-22 17:33N 40°43' W 074°01'2 2.4
2015-May-22 16:33N 40°45' W 074°01'0 0.0
2015-May-22 01:32N 40°45' W 074°01'3 3.5
2015-May-22 00:33N 40°42' W 074°02'3 3.5
2015-May-21 23:33N 40°45' W 074°01'0 0.3
2015-May-21 22:33N 40°45' W 074°01'2 0.4
2015-May-21 17:33N 40°43' W 074°01'3 2.6
2015-May-21 16:33N 40°46' W 074°01'1 0.1
2015-May-21 01:33N 40°45' W 074°01'4 3.7
2015-May-21 00:33N 40°41' W 074°02'4 3.5
2015-May-20 23:33N 40°45' W 074°01'0 0.4
2015-May-20 22:33N 40°45' W 074°01'1 0.1
2015-May-20 17:33N 40°44' W 074°01'2 2.2
2015-May-20 16:33N 40°42' W 074°02'3 2.9
2015-May-20 15:33N 40°45' W 074°01'0 0.0
2015-May-20 01:34N 40°45' W 074°01'4 3.7
2015-May-20 00:34N 40°41' W 074°02'3 3.3
2015-May-19 23:34N 40°45' W 074°01'1 0.5
2015-May-19 22:34N 40°45' W 074°01'1 0.2
2015-May-19 17:33N 40°44' W 074°01'2 2.0
2015-May-19 16:33N 40°42' W 074°02'2 0.1
2015-May-19 01:33N 40°44' W 074°01'2 2.0
2015-May-19 00:33N 40°42' W 074°01'3 3.3
2015-May-18 23:33N 40°45' W 074°01'1 0.1
2015-May-18 05:33N 40°44' W 074°01'1 1.2
2015-May-18 04:33N 40°43' W 074°02'2 2.1
2015-May-18 03:33N 40°45' W 074°01'0 0.0
2015-May-18 02:33N 40°45' W 074°01'0 0.0
2015-May-18 01:33N 40°45' W 074°01'3 3.3
2015-May-18 00:33N 40°42' W 074°02'  
Track history (hours):
 
Tides and Currents Weather Stations Pressure Air Temp Water Temp Dewpoint Dewpoint Depression Visibility Wind Speed Wind Dir Waves Ship Positions

Spirit Of New York

Owner: SPIRIT CRUISES LLC, NEW YORK, NY. More information available from US FCC via Universal Licensing System and Coast Guard Vessel Documentation Center.

Last reported at 2015-May-27 23:34 UTC. Time now 2015-May-27 23:53 UTC.
Position N 40°45' W 074°01'.

Length 62 m.

Type: Passenger vessel. MMSI: 338897000.

Date/timePositionNaut miles runAvg speedWind from/ knotsBaromVisibWave heightAir tempDewpointWater temp
2015-May-27 23:34N 40°45' W 074°01'1 0.5
2015-May-27 22:34N 40°45' W 074°01'0 0.0
2015-May-27 21:33N 40°45' W 074°01'0 0.0
2015-May-27 20:34N 40°45' W 074°01'0 0.0
2015-May-27 19:34N 40°45' W 074°01'0 0.0
2015-May-27 18:33N 40°45' W 074°01'0 0.0
2015-May-27 17:34N 40°45' W 074°01'1 1.0
2015-May-27 16:33N 40°44' W 074°01'3 2.8
2015-May-27 15:33N 40°41' W 074°02'4 3.8
2015-May-27 14:33N 40°45' W 074°01'0 0.0
2015-May-27 01:22N 40°45' W 074°01'3 3.9
2015-May-27 00:33N 40°42' W 074°02'1 0.9
2015-May-26 23:33N 40°43' W 074°01'2 2.2
2015-May-26 22:33N 40°45' W 074°01'1 0.3
2015-May-26 17:33N 40°44' W 074°01'0 0.2
2015-May-26 16:33N 40°44' W 074°01'1 1.1
2015-May-26 15:33N 40°45' W 074°01'0 0.0
2015-May-26 14:33N 40°45' W 074°01'0 0.0
2015-May-26 05:20N 40°45' W 074°01'4 4.5
2015-May-26 04:33N 40°42' W 074°02'4 3.5
2015-May-26 03:33N 40°45' W 074°01'0 0.0
2015-May-26 02:33N 40°45' W 074°01'0 0.0
2015-May-26 01:33N 40°45' W 074°01'4 3.8
2015-May-26 00:33N 40°41' W 074°02'4 4.1
2015-May-25 23:33N 40°45' W 074°01'1 0.0
2015-May-25 02:09N 40°45' W 074°01'0 0.0
2015-May-25 01:33N 40°45' W 074°01'4 4.0
2015-May-25 00:33N 40°41' W 074°03'5 4.6
2015-May-24 23:33N 40°46' W 074°01'1 0.1
2015-May-24 18:33N 40°45' W 074°01'2 1.6
2015-May-24 17:33N 40°43' W 074°01'1 0.7
2015-May-24 16:33N 40°44' W 074°01'1 0.1
2015-May-24 05:33N 40°45' W 074°01'4 4.0
2015-May-24 04:33N 40°41' W 074°02'4 4.0
2015-May-24 03:33N 40°45' W 074°01'0 0.0
2015-May-24 02:33N 40°45' W 074°01'0 0.3
2015-May-24 01:33N 40°45' W 074°01'3 3.4
2015-May-24 00:33N 40°42' W 074°01'4 4.4
2015-May-23 23:33N 40°46' W 074°00'1 1.3
2015-May-23 22:33N 40°45' W 074°01'0 0.0
2015-May-23 21:33N 40°45' W 074°01'0 0.0
2015-May-23 20:33N 40°45' W 074°01'0 0.0
2015-May-23 19:33N 40°45' W 074°01'0 0.0
2015-May-23 18:33N 40°45' W 074°01'1 1.3
2015-May-23 17:33N 40°44' W 074°01'2 2.2
2015-May-23 16:33N 40°46' W 074°01'1 0.1
2015-May-23 02:19N 40°45' W 074°01'2 2.7
2015-May-23 01:33N 40°43' W 074°01'2 1.5
2015-May-23 00:33N 40°42' W 073°59'4 3.9
2015-May-22 23:33N 40°46' W 074°00'1 1.5
2015-May-22 22:33N 40°45' W 074°01'0 0.0
2015-May-22 21:33N 40°45' W 074°01'0 0.0
2015-May-22 20:33N 40°45' W 074°01'0 0.0
2015-May-22 19:33N 40°45' W 074°01'0 0.0
2015-May-22 18:33N 40°45' W 074°01'2 2.2
2015-May-22 17:33N 40°43' W 074°01'2 2.4
2015-May-22 16:33N 40°45' W 074°01'0 0.0
2015-May-22 01:32N 40°45' W 074°01'3 3.5
2015-May-22 00:33N 40°42' W 074°02'3 3.5
2015-May-21 23:33N 40°45' W 074°01'0 0.3
2015-May-21 22:33N 40°45' W 074°01'2 0.4
2015-May-21 17:33N 40°43' W 074°01'3 2.6
2015-May-21 16:33N 40°46' W 074°01'1 0.1
2015-May-21 01:33N 40°45' W 074°01'4 3.7
2015-May-21 00:33N 40°41' W 074°02'4 3.5
2015-May-20 23:33N 40°45' W 074°01'0 0.4
2015-May-20 22:33N 40°45' W 074°01'1 0.1
2015-May-20 17:33N 40°44' W 074°01'2 2.2
2015-May-20 16:33N 40°42' W 074°02'3 2.9
2015-May-20 15:33N 40°45' W 074°01'0 0.0
2015-May-20 01:34N 40°45' W 074°01'4 3.7
2015-May-20 00:34N 40°41' W 074°02'3 3.3
2015-May-19 23:34N 40°45' W 074°01'1 0.5
2015-May-19 22:34N 40°45' W 074°01'1 0.2
2015-May-19 17:33N 40°44' W 074°01'2 2.0
2015-May-19 16:33N 40°42' W 074°02'2 0.1
2015-May-19 01:33N 40°44' W 074°01'2 2.0
2015-May-19 00:33N 40°42' W 074°01'3 3.3
2015-May-18 23:33N 40°45' W 074°01'1 0.1
2015-May-18 05:33N 40°44' W 074°01'1 1.2
2015-May-18 04:33N 40°43' W 074°02'2 2.1
2015-May-18 03:33N 40°45' W 074°01'0 0.0
2015-May-18 02:33N 40°45' W 074°01'0 0.0
2015-May-18 01:33N 40°45' W 074°01'3 3.3
2015-May-18 00:33N 40°42' W 074°02'  

Dump ship's entire track history